createdAt,value
2019-02-26T00:00:26.264Z,65.40
2019-02-26T00:03:04.186Z,65.49
2019-02-26T00:05:35.305Z,65.49
2019-02-26T00:08:05.146Z,66.00
2019-02-26T00:10:37.140Z,65.68
2019-02-26T00:13:06.482Z,65.38
2019-02-26T00:15:38.114Z,65.72
2019-02-26T00:18:11.502Z,65.24
2019-02-26T00:20:41.335Z,65.24
2019-02-26T00:23:10.996Z,65.50
2019-02-26T00:25:40.753Z,65.50
2019-02-26T00:28:11.114Z,65.29
2019-02-26T00:30:42.505Z,64.86
2019-02-26T00:33:13.717Z,64.74
2019-02-26T00:35:48.136Z,65.02
2019-02-26T00:38:19.894Z,65.37
2019-02-26T00:40:49.774Z,65.25
2019-02-26T00:43:23.267Z,65.95
2019-02-26T00:45:53.291Z,66.85
2019-02-26T00:48:23.507Z,66.29
2019-02-26T00:50:54.463Z,66.23
2019-02-26T00:53:26.077Z,66.73
2019-02-26T00:55:58.711Z,67.39
2019-02-26T00:58:28.115Z,68.00
2019-02-26T01:00:59.847Z,68.64
2019-02-26T01:03:29.627Z,68.08
2019-02-26T01:06:01.606Z,67.82
2019-02-26T01:08:31.934Z,67.82
2019-02-26T01:11:07.768Z,69.05
2019-02-26T01:13:36.361Z,69.05
2019-02-26T01:16:06.176Z,67.64
2019-02-26T01:18:35.950Z,67.64
2019-02-26T01:21:07.135Z,68.20
2019-02-26T01:23:36.967Z,68.27
2019-02-26T01:26:06.728Z,68.40
2019-02-26T01:28:36.512Z,68.28
2019-02-26T01:31:07.385Z,68.85
2019-02-26T01:33:37.168Z,68.85
2019-02-26T01:36:08.383Z,69.19
2019-02-26T01:38:41.499Z,69.63
2019-02-26T01:41:11.230Z,69.63
2019-02-26T01:43:44.503Z,68.97
2019-02-26T01:46:18.744Z,68.97
2019-02-26T01:48:48.696Z,68.95
2019-02-26T01:51:19.374Z,68.13
2019-02-26T01:53:51.895Z,68.13
2019-02-26T01:56:21.770Z,68.15
2019-02-26T01:58:56.527Z,68.33
2019-02-26T02:01:23.851Z,68.38
2019-02-26T02:03:56.123Z,68.56
2019-02-26T02:06:26.548Z,69.75
2019-02-26T02:08:56.360Z,69.75
2019-02-26T02:11:33.404Z,70.48
2019-02-26T02:14:04.210Z,70.22
2019-02-26T02:16:35.141Z,69.51
2019-02-26T02:19:05.048Z,69.51
2019-02-26T02:21:36.026Z,69.22
2019-02-26T02:24:10.710Z,69.60
2019-02-26T02:26:37.578Z,70.09
2019-02-26T02:29:07.323Z,68.83
2019-02-26T02:31:38.247Z,68.64
2019-02-26T02:34:08.755Z,68.64
2019-02-26T02:36:38.520Z,68.61
2019-02-26T02:39:12.920Z,68.50
2019-02-26T02:41:42.118Z,67.98
2019-02-26T02:44:14.491Z,67.30
2019-02-26T02:46:48.876Z,67.20
2019-02-26T02:49:18.668Z,67.44
2019-02-26T02:51:49.604Z,68.02
2019-02-26T02:54:21.051Z,67.56
2019-02-26T02:56:50.907Z,66.78
2019-02-26T02:59:20.794Z,67.21
2019-02-26T03:01:52.733Z,67.76
2019-02-26T03:04:25.160Z,68.88
2019-02-26T03:06:55.588Z,68.88
2019-02-26T03:09:25.650Z,69.68
2019-02-26T03:11:55.899Z,69.46
2019-02-26T03:14:25.753Z,69.94
2019-02-26T03:16:55.570Z,69.96
2019-02-26T03:19:25.330Z,69.98
2019-02-26T03:21:55.129Z,69.59
2019-02-26T03:24:27.652Z,69.59
2019-02-26T03:26:56.449Z,70.50
2019-02-26T03:29:26.277Z,70.50
2019-02-26T03:31:56.121Z,70.84
2019-02-26T03:34:30.991Z,71.22
2019-02-26T03:37:03.075Z,71.18
2019-02-26T03:39:32.345Z,71.18
2019-02-26T03:42:02.312Z,71.97
2019-02-26T03:44:33.118Z,71.98
2019-02-26T03:47:02.936Z,71.98
2019-02-26T03:49:32.742Z,71.73
2019-02-26T03:52:02.536Z,71.91
2019-02-26T03:54:37.850Z,71.67
2019-02-26T03:57:09.011Z,71.91
2019-02-26T03:59:39.419Z,72.17
2019-02-26T04:02:09.973Z,72.05
2019-02-26T04:04:57.203Z,72.05
2019-02-26T04:07:28.359Z,73.82
2019-02-26T04:09:58.728Z,73.82
2019-02-26T04:12:28.629Z,74.70
2019-02-26T04:14:58.406Z,75.20
2019-02-26T04:17:30.733Z,75.33
2019-02-26T04:20:05.610Z,73.50
2019-02-26T04:22:35.104Z,71.39
2019-02-26T04:25:29.956Z,71.39
2019-02-26T04:28:08.165Z,71.46
2019-02-26T04:30:59.983Z,72.92
2019-02-26T04:33:41.236Z,74.16
2019-02-26T04:36:28.493Z,75.29
2019-02-26T04:39:30.030Z,75.29
2019-02-26T04:42:17.582Z,76.51
2019-02-26T04:45:09.145Z,75.95
2019-02-26T04:47:49.575Z,75.95
2019-02-26T04:50:18.322Z,76.09
2019-02-26T04:52:48.386Z,77.36
2019-02-26T04:55:18.175Z,77.73
2019-02-26T04:57:49.031Z,77.12
2019-02-26T05:00:19.481Z,76.55
2019-02-26T05:02:49.365Z,76.38
2019-02-26T05:05:19.141Z,76.78
2019-02-26T05:07:50.713Z,76.72
2019-02-26T05:10:23.288Z,76.43
2019-02-26T05:12:54.124Z,76.43
2019-02-26T05:15:26.409Z,76.75
2019-02-26T05:17:55.495Z,76.31
2019-02-26T05:20:25.272Z,74.66
2019-02-26T05:22:58.457Z,77.55
2019-02-26T05:25:27.635Z,77.92
2019-02-26T05:27:57.589Z,77.78
2019-02-26T05:30:27.732Z,78.62
2019-02-26T05:33:00.243Z,79.41
2019-02-26T05:35:29.021Z,79.32
2019-02-26T05:38:01.013Z,77.69
2019-02-26T05:40:30.296Z,77.69
2019-02-26T05:43:04.668Z,76.96
2019-02-26T05:45:35.652Z,77.66
2019-02-26T05:48:05.507Z,78.24
2019-02-26T05:50:38.576Z,78.15
2019-02-26T05:53:11.431Z,78.20
2019-02-26T05:55:42.271Z,78.06
2019-02-26T05:58:18.848Z,78.73
2019-02-26T06:00:49.091Z,78.50
2019-02-26T06:03:18.911Z,77.48
2019-02-26T06:05:51.658Z,77.58
2019-02-26T06:08:29.115Z,77.42
2019-02-26T06:10:55.571Z,76.63
2019-02-26T06:13:29.178Z,76.53
2019-02-26T06:16:02.279Z,74.53
2019-02-26T06:18:33.381Z,73.41
2019-02-26T06:21:03.202Z,70.67
2019-02-26T06:23:40.208Z,69.21
2019-02-26T06:26:14.907Z,68.62
2019-02-26T06:28:45.450Z,67.28
2019-02-26T06:31:16.665Z,66.52
2019-02-26T06:33:47.734Z,66.96
2019-02-26T06:36:19.230Z,64.93
2019-02-26T06:38:53.912Z,64.28
2019-02-26T06:41:25.966Z,63.19
2019-02-26T06:43:58.054Z,61.97
2019-02-26T06:46:33.774Z,61.45
2019-02-26T06:49:04.936Z,60.07
2019-02-26T06:51:37.397Z,58.56
2019-02-26T06:54:15.342Z,57.80
2019-02-26T06:56:46.032Z,58.93
2019-02-26T06:59:22.153Z,58.58
2019-02-26T07:01:55.587Z,58.87
2019-02-26T07:04:23.759Z,57.78
2019-02-26T07:06:59.343Z,58.36
2019-02-26T07:09:30.029Z,54.77
2019-02-26T07:12:04.272Z,53.66
2019-02-26T07:14:35.090Z,52.31
2019-02-26T07:17:09.245Z,51.41
2019-02-26T07:19:40.600Z,52.37
2019-02-26T07:22:18.262Z,52.08
2019-02-26T07:24:49.463Z,51.95
2019-02-26T07:27:28.679Z,50.51
2019-02-26T07:29:54.737Z,50.78
2019-02-26T07:32:28.711Z,51.49
2019-02-26T07:35:00.626Z,52.70
2019-02-26T07:37:37.562Z,54.39
2019-02-26T07:40:15.275Z,54.05
2019-02-26T07:42:46.641Z,52.68
2019-02-26T07:45:29.811Z,52.97
2019-02-26T07:48:03.076Z,51.64
2019-02-26T07:50:37.700Z,48.29
2019-02-26T07:53:27.168Z,46.28
2019-02-26T07:55:43.748Z,44.80
2019-02-26T07:58:17.811Z,43.95
2019-02-26T08:00:52.010Z,44.05
2019-02-26T08:03:26.912Z,45.01
2019-02-26T08:05:59.289Z,41.98
2019-02-26T08:08:28.926Z,41.44
2019-02-26T08:10:58.726Z,40.28
2019-02-26T08:13:32.071Z,41.48
2019-02-26T08:16:05.177Z,40.53
2019-02-26T08:18:34.963Z,41.18
2019-02-26T08:21:05.161Z,40.61
2019-02-26T08:23:35.043Z,40.81
2019-02-26T08:26:04.815Z,39.28
2019-02-26T08:28:36.477Z,38.58
2019-02-26T08:31:06.200Z,39.36
2019-02-26T08:33:35.975Z,39.48
2019-02-26T08:36:13.517Z,38.50
2019-02-26T08:38:41.545Z,36.83
2019-02-26T08:41:11.345Z,35.76
2019-02-26T08:43:44.177Z,35.20
2019-02-26T08:46:14.161Z,34.68
2019-02-26T08:48:46.166Z,35.86
2019-02-26T08:51:16.829Z,36.16
2019-02-26T08:53:49.404Z,35.40
2019-02-26T08:56:19.055Z,34.80
2019-02-26T08:58:49.430Z,35.08
2019-02-26T09:01:22.021Z,36.55
2019-02-26T09:03:53.762Z,38.33
2019-02-26T09:06:26.436Z,39.64
2019-02-26T09:08:58.021Z,38.70
2019-02-26T09:11:29.307Z,37.51
2019-02-26T09:14:02.174Z,36.73
2019-02-26T09:16:38.229Z,35.18
2019-02-26T09:19:09.629Z,35.35
2019-02-26T09:21:45.274Z,36.79
2019-02-26T09:24:18.441Z,33.88
2019-02-26T09:26:54.926Z,33.23
2019-02-26T09:29:26.219Z,33.19
2019-02-26T09:32:00.786Z,34.12
2019-02-26T09:34:31.771Z,33.76
2019-02-26T09:37:08.001Z,35.04
2019-02-26T09:39:39.558Z,34.68
2019-02-26T09:42:13.514Z,35.97
2019-02-26T09:44:43.548Z,35.69
2019-02-26T09:47:13.959Z,36.69
2019-02-26T09:49:43.726Z,36.22
2019-02-26T09:52:20.789Z,35.82
2019-02-26T09:54:52.844Z,35.53
2019-02-26T09:57:28.292Z,35.67
2019-02-26T10:00:02.942Z,35.70
2019-02-26T10:02:40.126Z,36.93
2019-02-26T10:05:13.982Z,36.64
2019-02-26T10:07:44.207Z,38.13
2019-02-26T10:10:18.318Z,39.00
2019-02-26T10:12:48.335Z,39.45
2019-02-26T10:15:18.899Z,39.71
2019-02-26T10:17:48.841Z,40.06
2019-02-26T10:20:23.286Z,40.00
2019-02-26T10:22:53.240Z,40.28
2019-02-26T10:25:25.693Z,40.26
2019-02-26T10:27:56.240Z,40.74
2019-02-26T10:30:27.862Z,40.90
2019-02-26T10:33:02.782Z,41.58
2019-02-26T10:35:45.181Z,41.32
2019-02-26T10:38:30.896Z,41.10
2019-02-26T10:41:06.251Z,41.02
2019-02-26T10:43:52.802Z,42.80
2019-02-26T10:46:25.387Z,41.30
2019-02-26T10:49:12.436Z,42.77
2019-02-26T10:51:47.779Z,41.89
2019-02-26T10:54:39.504Z,42.72
2019-02-26T10:57:19.713Z,43.77
2019-02-26T11:00:06.391Z,42.43
2019-02-26T11:02:54.438Z,43.29
2019-02-26T11:05:28.481Z,42.83
2019-02-26T11:08:20.792Z,42.49
2019-02-26T11:10:59.942Z,44.43
2019-02-26T11:13:33.142Z,43.55
2019-02-26T11:16:03.704Z,42.00
2019-02-26T11:18:39.857Z,43.20
2019-02-26T11:21:14.705Z,42.87
2019-02-26T11:23:46.487Z,42.58
2019-02-26T11:26:18.968Z,42.13
2019-02-26T11:28:52.492Z,41.78
2019-02-26T11:31:47.182Z,42.42
2019-02-26T11:34:13.350Z,41.38
2019-02-26T11:36:44.695Z,42.08
2019-02-26T11:39:16.548Z,42.00
2019-02-26T11:41:48.284Z,40.18
2019-02-26T11:44:23.555Z,41.05
2019-02-26T11:47:00.736Z,41.12
2019-02-26T11:49:31.914Z,40.52
2019-02-26T11:52:07.092Z,41.36
2019-02-26T11:54:40.221Z,40.63
2019-02-26T11:57:15.823Z,40.98
2019-02-26T11:59:46.774Z,40.12
2019-02-26T12:02:25.118Z,41.44
2019-02-26T12:04:48.131Z,41.88
2019-02-26T12:07:25.598Z,42.00
2019-02-26T12:09:55.558Z,41.49
2019-02-26T12:12:36.176Z,40.68
2019-02-26T12:15:16.984Z,41.29
2019-02-26T12:17:52.258Z,40.18
2019-02-26T12:20:24.225Z,40.49
2019-02-26T12:22:55.470Z,42.87
2019-02-26T12:25:27.168Z,41.10
2019-02-26T12:27:57.368Z,40.88
2019-02-26T12:30:27.967Z,40.28
2019-02-26T12:32:57.741Z,41.64
2019-02-26T12:35:29.676Z,42.00
2019-02-26T12:38:07.525Z,41.20
2019-02-26T12:40:30.662Z,39.48
2019-02-26T12:43:05.495Z,38.91
2019-02-26T12:45:37.193Z,39.02
2019-02-26T12:48:09.849Z,39.66
2019-02-26T12:50:40.433Z,37.91
2019-02-26T12:53:12.553Z,39.24
2019-02-26T12:55:42.440Z,37.72
2019-02-26T12:58:15.249Z,38.34
2019-02-26T13:00:44.330Z,37.68
2019-02-26T13:03:19.827Z,37.90
2019-02-26T13:05:51.728Z,37.78
2019-02-26T13:08:24.210Z,37.72
2019-02-26T13:10:57.764Z,37.25
2019-02-26T13:13:32.337Z,38.06
2019-02-26T13:16:03.200Z,36.88
2019-02-26T13:18:33.027Z,36.53
2019-02-26T13:21:11.112Z,35.80
2019-02-26T13:23:38.678Z,35.92
2019-02-26T13:26:10.858Z,36.16
2019-02-26T13:28:41.812Z,35.05
2019-02-26T13:31:13.651Z,35.70
2019-02-26T13:33:49.756Z,35.73
2019-02-26T13:36:19.866Z,33.89
2019-02-26T13:38:49.748Z,34.22
2019-02-26T13:41:29.996Z,34.96
2019-02-26T13:43:55.540Z,35.98
2019-02-26T13:46:29.631Z,36.85
2019-02-26T13:49:00.344Z,34.17
2019-02-26T13:51:30.159Z,31.98
2019-02-26T13:53:59.915Z,32.10
2019-02-26T13:56:30.522Z,31.20
2019-02-26T13:59:02.971Z,30.81
2019-02-26T14:01:32.726Z,30.81
2019-02-26T14:04:05.970Z,30.89
2019-02-26T14:06:39.039Z,30.95
2019-02-26T14:09:13.479Z,31.29
2019-02-26T14:11:43.261Z,30.49
2019-02-26T14:14:19.789Z,31.11
2019-02-26T14:16:52.543Z,31.49
2019-02-26T14:19:24.161Z,31.34
2019-02-26T14:21:58.689Z,30.56
2019-02-26T14:24:28.921Z,30.64
2019-02-26T14:27:04.831Z,30.76
2019-02-26T14:29:39.685Z,31.23
2019-02-26T14:32:13.200Z,31.12
2019-02-26T14:34:43.422Z,30.28
2019-02-26T14:37:17.793Z,30.20
2019-02-26T14:39:49.151Z,30.28
2019-02-26T14:42:23.674Z,30.90
2019-02-26T14:44:54.609Z,31.35
2019-02-26T14:47:27.138Z,32.08
2019-02-26T14:49:57.189Z,32.07
2019-02-26T14:52:29.841Z,32.14
2019-02-26T14:55:01.003Z,31.89
2019-02-26T14:57:34.280Z,31.69
2019-02-26T15:00:13.137Z,31.71
2019-02-26T15:02:48.959Z,31.93
2019-02-26T15:05:21.272Z,32.52
2019-02-26T15:07:53.028Z,32.60
2019-02-26T15:10:24.416Z,32.49
2019-02-26T15:12:54.595Z,32.55
2019-02-26T15:15:25.710Z,33.03
2019-02-26T15:17:57.510Z,33.24
2019-02-26T15:20:28.328Z,33.61
2019-02-26T15:23:01.553Z,33.39
2019-02-26T15:25:32.831Z,33.79
2019-02-26T15:28:05.392Z,33.76
2019-02-26T15:30:35.442Z,33.82
2019-02-26T15:33:11.117Z,33.63
2019-02-26T15:35:39.828Z,33.56
2019-02-26T15:38:10.165Z,33.51
2019-02-26T15:40:39.993Z,33.75
2019-02-26T15:43:09.769Z,33.92
2019-02-26T15:45:39.619Z,33.87
2019-02-26T15:48:09.475Z,33.97
2019-02-26T15:50:41.210Z,34.12
2019-02-26T15:53:13.962Z,34.24
2019-02-26T15:55:45.446Z,34.52
2019-02-26T15:58:15.357Z,34.25
2019-02-26T16:00:45.300Z,34.51
2019-02-26T16:03:22.848Z,35.00
2019-02-26T16:05:54.673Z,35.40
2019-02-26T16:08:34.392Z,35.57
2019-02-26T16:10:59.410Z,35.66
2019-02-26T16:13:29.583Z,36.02
2019-02-26T16:16:04.414Z,35.89
2019-02-26T16:18:34.252Z,36.10
2019-02-26T16:21:05.457Z,36.33
2019-02-26T16:23:35.658Z,36.31
2019-02-26T16:26:05.641Z,36.45
2019-02-26T16:28:37.268Z,36.75
2019-02-26T16:31:14.013Z,36.68
2019-02-26T16:33:46.724Z,36.54
2019-02-26T16:39:06.843Z,36.88
2019-02-26T16:41:39.021Z,36.90
2019-02-26T16:44:14.440Z,37.05
2019-02-26T16:46:54.309Z,36.96
2019-02-26T16:49:30.027Z,37.17
2019-02-26T16:52:15.861Z,37.15
2019-02-26T16:54:51.868Z,37.01
2019-02-26T16:57:28.159Z,36.77
2019-02-26T17:00:03.569Z,37.33
2019-02-26T17:02:35.862Z,37.47
2019-02-26T17:05:15.437Z,37.46
2019-02-26T17:07:49.651Z,36.03
2019-02-26T17:10:23.224Z,36.06
2019-02-26T17:13:02.276Z,36.30
2019-02-26T17:15:36.829Z,36.24
2019-02-26T17:18:17.027Z,36.45
2019-02-26T17:20:49.382Z,36.94
2019-02-26T17:23:21.278Z,37.10
2019-02-26T17:25:52.131Z,36.93
2019-02-26T17:28:33.523Z,37.35
2019-02-26T17:31:13.400Z,38.12
2019-02-26T17:33:46.733Z,38.81
2019-02-26T17:36:17.771Z,39.38
2019-02-26T17:38:54.471Z,40.08
2019-02-26T17:41:36.602Z,38.91
2019-02-26T17:44:12.262Z,38.76
2019-02-26T17:46:57.324Z,38.82
2019-02-26T17:49:30.308Z,38.89
2019-02-26T17:52:22.852Z,39.53
2019-02-26T17:55:10.781Z,40.67
2019-02-26T17:57:47.690Z,40.24
2019-02-26T18:00:34.236Z,40.36
2019-02-26T18:03:13.677Z,41.33
2019-02-26T18:05:51.208Z,41.40
2019-02-26T18:08:34.157Z,41.32
2019-02-26T18:11:07.229Z,42.04
2019-02-26T18:13:41.068Z,42.29
2019-02-26T18:16:12.795Z,42.35
2019-02-26T18:18:42.776Z,43.27
2019-02-26T18:21:12.553Z,44.00
2019-02-26T18:23:42.391Z,44.14
2019-02-26T18:26:12.217Z,43.79
2019-02-26T18:28:42.322Z,44.32
2019-02-26T18:31:12.140Z,44.47
2019-02-26T18:33:42.006Z,44.30
2019-02-26T18:36:13.218Z,44.13
2019-02-26T18:38:43.102Z,44.97
2019-02-26T18:41:13.160Z,43.72
2019-02-26T18:43:44.806Z,43.69
2019-02-26T18:46:19.216Z,43.72
2019-02-26T18:48:53.874Z,44.22
2019-02-26T18:51:24.560Z,44.46
2019-02-26T18:53:56.694Z,44.52
2019-02-26T18:57:04.249Z,44.64
2019-02-26T18:59:46.369Z,44.96
2019-02-26T19:02:20.856Z,45.14
2019-02-26T19:04:50.749Z,45.45
2019-02-26T19:07:21.567Z,45.24
2019-02-26T19:09:55.029Z,44.92
2019-02-26T19:12:30.632Z,44.79
2019-02-26T19:15:02.195Z,45.01
2019-02-26T19:17:41.786Z,45.03
2019-02-26T19:20:15.521Z,45.04
2019-02-26T19:22:45.945Z,45.13
2019-02-26T19:25:18.676Z,45.43
2019-02-26T19:27:52.791Z,45.05
2019-02-26T19:30:22.014Z,45.00
2019-02-26T19:32:52.055Z,44.78
2019-02-26T19:35:24.702Z,44.95
2019-02-26T19:38:00.463Z,44.87
2019-02-26T19:40:46.619Z,44.84
2019-02-26T19:43:20.069Z,44.85
2019-02-26T19:45:54.754Z,45.13
2019-02-26T19:48:25.992Z,45.36
2019-02-26T19:50:57.649Z,45.07
2019-02-26T19:53:28.845Z,44.82
2019-02-26T19:55:58.645Z,44.68
2019-02-26T19:58:28.459Z,44.91
2019-02-26T20:01:00.038Z,45.45
2019-02-26T20:03:39.975Z,46.24
2019-02-26T20:06:04.714Z,46.64
2019-02-26T20:08:37.671Z,46.80
2019-02-26T20:11:10.875Z,47.39
2019-02-26T20:13:42.173Z,47.42
2019-02-26T20:16:17.705Z,47.09
2019-02-26T20:18:49.227Z,47.53
2019-02-26T20:21:22.185Z,47.86
2019-02-26T20:23:53.543Z,47.14
2019-02-26T20:26:23.671Z,47.02
2019-02-26T20:28:53.638Z,47.11
2019-02-26T20:31:24.741Z,47.36
2019-02-26T20:33:56.374Z,47.40
2019-02-26T20:36:27.613Z,46.92
2019-02-26T20:38:59.495Z,47.08
2019-02-26T20:41:31.321Z,47.98
2019-02-26T20:44:01.918Z,49.85
2019-02-26T20:46:32.334Z,49.17
2019-02-26T20:49:02.558Z,48.72
2019-02-26T20:51:36.188Z,50.16
2019-02-26T20:54:11.696Z,51.35
2019-02-26T20:56:44.920Z,51.49
2019-02-26T20:59:18.048Z,51.81
2019-02-26T21:01:50.966Z,51.44
2019-02-26T21:04:23.011Z,51.65
2019-02-26T21:06:57.309Z,52.30
2019-02-26T21:09:28.174Z,53.18
2019-02-26T21:11:59.912Z,52.43
2019-02-26T21:14:31.096Z,52.79
2019-02-26T21:17:06.991Z,53.48
2019-02-26T21:19:40.477Z,53.61
2019-02-26T21:22:16.186Z,52.75
2019-02-26T21:24:48.038Z,51.99
2019-02-26T21:27:23.815Z,52.28
2019-02-26T21:29:54.028Z,52.31
2019-02-26T21:32:25.618Z,52.49
2019-02-26T21:34:57.103Z,52.44
2019-02-26T21:37:33.297Z,52.46
2019-02-26T21:40:07.759Z,52.67
2019-02-26T21:42:43.374Z,52.45
2019-02-26T21:45:16.460Z,52.35
2019-02-26T21:47:47.035Z,52.08
2019-02-26T21:50:21.940Z,52.24
2019-02-26T21:53:02.243Z,52.62
2019-02-26T21:55:33.727Z,52.98
2019-02-26T21:58:11.388Z,52.93
2019-02-26T22:00:46.239Z,52.95
2019-02-26T22:03:24.617Z,52.09
2019-02-26T22:06:05.064Z,52.11
2019-02-26T22:08:29.673Z,51.87
2019-02-26T22:11:00.994Z,51.54
2019-02-26T22:13:30.846Z,51.14
2019-02-26T22:16:01.075Z,50.36
2019-02-26T22:18:35.392Z,50.18
2019-02-26T22:21:07.003Z,50.37
2019-02-26T22:23:37.696Z,50.80
2019-02-26T22:26:08.252Z,50.88
2019-02-26T22:28:39.739Z,51.06
2019-02-26T22:31:12.541Z,50.68
2019-02-26T22:33:46.406Z,49.58
2019-02-26T22:36:16.417Z,48.98
2019-02-26T22:38:49.073Z,49.25
2019-02-26T22:41:19.171Z,50.00
2019-02-26T22:43:49.028Z,50.39
2019-02-26T22:46:18.984Z,50.48
2019-02-26T22:48:50.533Z,50.96
2019-02-26T22:52:16.123Z,51.63
2019-02-26T22:55:04.880Z,51.88
2019-02-26T22:57:41.270Z,51.90
2019-02-26T23:00:48.416Z,52.21
2019-02-26T23:03:17.209Z,52.30
2019-02-26T23:05:52.156Z,52.75
2019-02-26T23:08:22.778Z,53.22
2019-02-26T23:10:56.894Z,54.22
2019-02-26T23:13:25.628Z,54.72
2019-02-26T23:15:55.822Z,55.16
2019-02-26T23:18:31.073Z,55.22
2019-02-26T23:21:02.139Z,55.14
2019-02-26T23:23:33.302Z,55.67
2019-02-26T23:26:08.662Z,55.81
2019-02-26T23:28:36.719Z,56.01
2019-02-26T23:31:07.453Z,56.57
2019-02-26T23:33:37.516Z,57.14
2019-02-26T23:36:07.799Z,56.85
2019-02-26T23:38:38.215Z,57.25
2019-02-26T23:41:09.233Z,57.61
2019-02-26T23:43:39.046Z,57.67
2019-02-26T23:46:09.233Z,57.71
2019-02-26T23:48:40.903Z,57.88
2019-02-26T23:51:13.834Z,57.44
2019-02-26T23:53:43.772Z,57.25
2019-02-26T23:56:16.765Z,56.72
2019-02-26T23:58:47.084Z,55.87
